Time;durP1;ratioP1;P1;durP2;ratioP2;P2;SDS_P1;SDS_P2;PMS_P1;PMS_P2;Temp;Humidity;BMP_temperature;BMP_pressure;BME280_temperature;BME280_humidity;BME280_pressure;Samples;Min_cycle;Max_cycle;Signal;HPM_P1;HPM_P2
2022/06/24 00:00:40;;;;;;;3.65;1.35;;;;;;;21.84;64.56;96611.16;4967604;28;20263;-84
2022/06/24 00:03:06;;;;;;;5.18;1.50;;;;;;;21.81;65.12;96603.84;4951348;28;20307;-83
2022/06/24 00:05:33;;;;;;;5.03;2.13;;;;;;;21.65;65.40;96591.25;4951152;28;20155;-83
2022/06/24 00:07:59;;;;;;;4.25;1.38;;;;;;;21.77;65.78;96593.16;4935188;28;20206;-83
2022/06/24 00:10:31;;;;;;;3.70;1.65;;;;;;;21.69;65.63;96594.03;4952466;28;20239;-84
2022/06/24 00:12:57;;;;;;;2.95;1.45;;;;;;;21.81;65.31;96609.16;4953274;28;20269;-84
2022/06/24 00:15:41;;;;;;;3.72;1.50;;;;;;;21.46;65.90;96594.44;4952249;28;20164;-84
2022/06/24 00:18:13;;;;;;;5.57;1.33;;;;;;;21.59;65.73;96603.19;4954504;28;20666;-83
2022/06/24 00:20:43;;;;;;;2.97;1.90;;;;;;;21.63;65.61;96603.31;4951642;28;20372;-83
2022/06/24 00:23:08;;;;;;;4.60;1.40;;;;;;;21.78;65.10;96615.91;4935231;28;20160;-83
2022/06/24 00:25:36;;;;;;;4.15;1.63;;;;;;;21.72;65.19;96622.50;4967594;28;20320;-84
2022/06/24 00:28:01;;;;;;;2.30;1.30;;;;;;;21.70;65.26;96614.13;4937666;28;20655;-83
2022/06/24 00:30:27;;;;;;;3.22;1.08;;;;;;;21.71;65.63;96610.34;4970353;28;20198;-83
2022/06/24 00:33:11;;;;;;;3.88;0.90;;;;;;;21.51;64.99;96612.78;4954370;28;20772;-83
2022/06/24 00:35:46;;;;;;;3.67;1.05;;;;;;;21.61;65.52;96613.44;4947569;28;20500;-83
2022/06/24 00:38:21;;;;;;;2.47;0.80;;;;;;;21.52;65.40;96608.25;4959668;28;20238;-83
2022/06/24 00:40:48;;;;;;;2.80;1.08;;;;;;;21.59;65.50;96608.50;4949550;28;20253;-83
2022/06/24 00:43:30;;;;;;;2.63;1.65;;;;;;;21.39;65.96;96596.84;4935388;28;20194;-83
2022/06/24 00:46:18;;;;;;;1.45;1.20;;;;;;;21.37;66.17;96609.66;4969784;28;20652;-83
2022/06/24 00:48:57;;;;;;;3.17;1.13;;;;;;;21.37;66.10;96601.69;4950011;28;20262;-83
2022/06/24 00:51:32;;;;;;;2.50;1.40;;;;;;;21.38;65.88;96613.06;4967438;28;20199;-82
2022/06/24 00:53:57;;;;;;;3.03;0.95;;;;;;;21.56;65.29;96618.94;4945483;28;20194;-83
2022/06/24 00:56:26;;;;;;;2.55;1.35;;;;;;;21.41;65.74;96618.47;4966917;28;20651;-83
2022/06/24 00:58:53;;;;;;;2.20;1.20;;;;;;;21.30;65.88;96617.31;4955030;28;20564;-83
2022/06/24 01:01:54;;;;;;;2.97;1.05;;;;;;;21.14;66.52;96620.59;4958720;28;20206;-82
2022/06/24 01:04:20;;;;;;;2.33;1.33;;;;;;;21.37;66.23;96617.59;4888798;28;20302;-82
2022/06/24 01:06:45;;;;;;;2.20;1.17;;;;;;;21.39;65.86;96620.69;4907177;28;20260;-82
2022/06/24 01:09:11;;;;;;;3.05;1.27;;;;;;;21.39;65.87;96631.28;4908735;28;20216;-82
2022/06/24 01:11:41;;;;;;;2.58;1.30;;;;;;;21.31;65.82;96629.47;4925716;28;20284;-82
2022/06/24 01:14:07;;;;;;;1.80;1.05;;;;;;;21.37;65.84;96625.53;4897308;28;20189;-82
2022/06/24 01:16:33;;;;;;;2.72;1.27;;;;;;;21.36;66.35;96626.63;4895247;28;20209;-82
2022/06/24 01:19:04;;;;;;;4.18;1.30;;;;;;;21.27;66.64;96628.59;4890790;28;20731;-82
2022/06/24 01:21:39;;;;;;;4.85;1.30;;;;;;;21.26;66.50;96635.75;4923563;28;20167;-82
2022/06/24 01:24:06;;;;;;;3.08;1.15;;;;;;;21.39;66.16;96636.56;4909026;28;20284;-82
2022/06/24 01:26:31;;;;;;;2.53;1.27;;;;;;;21.33;66.67;96628.06;4925037;28;20195;-82
2022/06/24 01:28:57;;;;;;;2.53;1.00;;;;;;;21.31;66.75;96627.59;4924441;28;20222;-83
2022/06/24 01:31:22;;;;;;;3.35;1.23;;;;;;;21.25;66.29;96630.78;4926526;28;20281;-82
2022/06/24 01:33:47;;;;;;;3.75;2.05;;;;;;;21.21;66.59;96629.91;4931210;28;20305;-82
2022/06/24 01:36:13;;;;;;;3.67;0.98;;;;;;;21.22;66.33;96626.16;4907021;28;20109;-82
2022/06/24 01:38:38;;;;;;;2.65;1.30;;;;;;;21.26;66.17;96634.97;4933420;28;20224;-82
2022/06/24 01:41:04;;;;;;;1.77;1.08;;;;;;;21.25;66.24;96636.06;4965271;28;20678;-82
2022/06/24 01:43:30;;;;;;;2.92;1.42;;;;;;;21.21;66.34;96624.59;4965507;28;20731;-82
2022/06/24 01:45:56;;;;;;;2.70;1.80;;;;;;;21.18;66.36;96633.19;4949042;28;20656;-82
2022/06/24 01:48:21;;;;;;;1.73;1.20;;;;;;;21.16;66.57;96622.16;4949014;28;20130;-82
2022/06/24 01:50:46;;;;;;;4.03;1.67;;;;;;;21.18;66.21;96626.03;4956896;28;20348;-82
2022/06/24 01:53:12;;;;;;;2.60;1.52;;;;;;;21.11;66.27;96636.38;4949293;28;20187;-83
2022/06/24 01:55:37;;;;;;;1.45;1.35;;;;;;;21.08;66.06;96621.91;4965816;28;20191;-83
2022/06/24 01:58:03;;;;;;;3.38;1.80;;;;;;;21.05;66.47;96611.22;4965256;28;20273;-82
2022/06/24 02:00:28;;;;;;;3.53;1.13;;;;;;;21.05;66.63;96611.97;4935356;28;20289;-83
2022/06/24 02:02:54;;;;;;;2.03;1.58;;;;;;;21.00;66.41;96600.81;4948838;28;20255;-82
2022/06/24 02:05:19;;;;;;;2.50;1.10;;;;;;;21.00;66.32;96608.78;4932320;28;20276;-83
2022/06/24 02:07:45;;;;;;;2.13;1.10;;;;;;;20.97;66.38;96598.81;4964434;28;20194;-82
2022/06/24 02:13:36;;;;;;;2.90;1.30;;;;;;;20.90;67.09;96586.88;4965270;28;20182;-83
2022/06/24 02:15:42;;;;;;;3.33;1.60;;;;;;;20.93;66.44;96580.19;4957787;28;20292;-82
2022/06/24 02:18:09;;;;;;;4.03;1.85;;;;;;;20.92;66.80;96578.63;4965100;28;20194;-83
2022/06/24 02:20:34;;;;;;;4.03;1.77;;;;;;;20.88;66.61;96572.44;4948619;28;20207;-83
2022/06/24 02:22:59;;;;;;;2.40;1.25;;;;;;;20.87;66.73;96568.25;4940200;28;20675;-83
2022/06/24 02:25:25;;;;;;;2.35;1.52;;;;;;;20.81;66.45;96572.97;4964771;28;20243;-82
2022/06/24 02:27:51;;;;;;;3.30;1.52;;;;;;;20.77;66.81;96564.16;4965423;28;20168;-82
2022/06/24 02:30:16;;;;;;;3.25;1.48;;;;;;;20.76;66.75;96562.59;4937957;28;20105;-83
2022/06/24 02:32:41;;;;;;;2.15;1.70;;;;;;;20.76;67.02;96562.59;4964459;28;20200;-83
2022/06/24 02:35:07;;;;;;;3.55;1.58;;;;;;;20.72;67.08;96557.19;4967001;28;20206;-83
2022/06/24 02:37:33;;;;;;;4.07;1.77;;;;;;;20.72;66.89;96549.25;4969889;28;20303;-83
2022/06/24 02:40:45;;;;;;;2.63;1.63;;;;;;;20.69;66.90;96554.41;4969828;28;20663;-82
2022/06/24 02:42:43;;;;;;;;;;;;;;;20.48;67.39;96554.41;4964759;28;20181;-83
2022/06/24 02:45:09;;;;;;;3.90;1.90;;;;;;;20.65;66.93;96549.00;4964481;28;20061;-82
2022/06/24 02:47:34;;;;;;;2.58;1.80;;;;;;;20.67;67.03;96549.44;4969930;28;20290;-83
2022/06/24 02:49:59;;;;;;;3.70;1.50;;;;;;;20.73;66.72;96553.44;4945841;28;20643;-83
2022/06/24 02:52:25;;;;;;;2.95;1.50;;;;;;;20.70;67.05;96564.69;4971195;28;20691;-82
2022/06/24 02:54:50;;;;;;;4.45;2.00;;;;;;;20.72;66.95;96546.59;4968376;28;20285;-82
2022/06/24 02:57:16;;;;;;;4.25;1.98;;;;;;;20.71;67.00;96539.75;4968851;28;20613;-82
2022/06/24 02:59:41;;;;;;;3.60;1.70;;;;;;;20.84;66.83;96539.81;4951399;28;20190;-83
2022/06/24 03:02:06;;;;;;;3.55;2.05;;;;;;;20.81;66.65;96540.47;4968792;28;20207;-82
2022/06/24 03:04:32;;;;;;;3.72;1.70;;;;;;;20.84;66.76;96540.56;4951820;28;20233;-83
2022/06/24 03:06:57;;;;;;;6.78;1.80;;;;;;;20.85;66.44;96534.16;4952338;28;20198;-83
2022/06/24 03:09:22;;;;;;;4.70;2.38;;;;;;;20.80;66.49;96536.25;4935669;28;20247;-83
2022/06/24 03:11:48;;;;;;;4.43;2.50;;;;;;;20.83;66.51;96536.38;4952144;28;20271;-83
2022/06/24 03:14:13;;;;;;;4.72;2.30;;;;;;;20.71;66.59;96529.16;4968303;28;20598;-83
2022/06/24 03:16:38;;;;;;;2.70;1.88;;;;;;;20.73;66.52;96536.78;4951971;28;20699;-83
2022/06/24 03:19:04;;;;;;;4.05;2.45;;;;;;;20.63;66.73;96524.75;4951817;28;20636;-83
2022/06/24 03:21:29;;;;;;;6.80;2.45;;;;;;;20.72;66.21;96530.72;4950799;28;20218;-83
2022/06/24 03:23:55;;;;;;;3.58;2.10;;;;;;;20.66;66.76;96532.00;4935562;28;20660;-83
2022/06/24 03:26:20;;;;;;;4.55;2.20;;;;;;;20.71;67.18;96526.53;4935504;28;20269;-86
2022/06/24 03:28:45;;;;;;;3.00;2.00;;;;;;;20.76;67.09;96528.97;4967775;28;20206;-83
2022/06/24 03:31:14;;;;;;;5.28;2.28;;;;;;;20.65;67.23;96519.91;4968394;28;20226;-83
2022/06/24 03:33:39;;;;;;;3.08;2.03;;;;;;;20.85;66.92;96526.22;4970502;28;20273;-85
2022/06/24 03:36:09;;;;;;;5.65;2.60;;;;;;;20.80;66.99;96528.31;4967918;28;20161;-84
2022/06/24 03:38:35;;;;;;;4.13;2.30;;;;;;;20.89;66.78;96526.38;4965555;28;20123;-83
2022/06/24 03:41:00;;;;;;;2.97;2.10;;;;;;;20.90;66.69;96527.91;4968320;28;20719;-83
2022/06/24 03:43:25;;;;;;;5.13;3.03;;;;;;;20.88;66.40;96519.53;4951738;28;20214;-82
2022/06/24 03:45:59;;;;;;;3.88;2.58;;;;;;;20.68;66.83;96511.31;4967924;28;20199;-82
2022/06/24 03:48:25;;;;;;;5.78;2.28;;;;;;;20.84;66.18;96516.75;4950785;28;20245;-81
2022/06/24 03:50:50;;;;;;;5.45;2.35;;;;;;;20.77;66.46;96513.88;4954370;28;20280;-82
2022/06/24 03:53:15;;;;;;;4.18;2.40;;;;;;;20.80;66.61;96518.50;4974159;28;20194;-82
2022/06/24 03:55:41;;;;;;;5.68;2.90;;;;;;;20.57;67.12;96508.25;4966647;28;20677;-82
2022/06/24 03:58:06;;;;;;;5.75;2.70;;;;;;;20.66;66.92;96521.44;4967400;28;20158;-80
2022/06/24 04:00:32;;;;;;;4.75;2.92;;;;;;;20.79;66.72;96527.56;4967180;28;20232;-81
2022/06/24 04:02:58;;;;;;;5.88;2.47;;;;;;;20.76;66.74;96526.31;4935126;28;20214;-81
2022/06/24 04:05:24;;;;;;;5.40;2.53;;;;;;;20.60;67.50;96528.00;4953252;28;20285;-83
2022/06/24 04:07:49;;;;;;;6.15;2.85;;;;;;;20.40;68.42;96516.34;4950956;28;20237;-80
2022/06/24 04:10:15;;;;;;;6.07;3.30;;;;;;;20.47;68.19;96518.47;4931666;28;20701;-81
2022/06/24 04:12:40;;;;;;;8.18;3.78;;;;;;;20.70;67.94;96519.69;4934257;28;20229;-81
2022/06/24 04:15:17;;;;;;;5.68;2.85;;;;;;;20.76;67.67;96523.66;4933849;28;20214;-81
2022/06/24 04:17:43;;;;;;;6.80;3.53;;;;;;;20.66;67.81;96516.13;4967808;28;20271;-81
2022/06/24 04:20:09;;;;;;;6.45;3.55;;;;;;;20.73;67.54;96518.25;4967188;28;20309;-80
2022/06/24 04:22:34;;;;;;;4.72;2.80;;;;;;;20.84;67.26;96526.59;4951220;28;20154;-81
2022/06/24 04:25:00;;;;;;;4.15;2.97;;;;;;;20.69;67.38;96528.72;4974333;28;20641;-80
2022/06/24 04:27:25;;;;;;;3.53;2.78;;;;;;;20.75;67.32;96535.38;4950838;28;20283;-80
2022/06/24 04:29:51;;;;;;;7.20;3.92;;;;;;;20.87;66.98;96539.13;4955466;28;20199;-80
2022/06/24 04:32:16;;;;;;;3.95;2.65;;;;;;;20.91;67.04;96537.41;4968097;28;20169;-81
2022/06/24 04:34:41;;;;;;;7.05;3.13;;;;;;;20.85;67.13;96534.16;4956229;28;20201;-80
2022/06/24 04:37:07;;;;;;;6.53;3.33;;;;;;;20.82;67.10;96544.63;4947566;28;20298;-81
2022/06/24 04:39:32;;;;;;;5.65;3.13;;;;;;;20.89;67.25;96545.66;4959174;28;20206;-80
2022/06/24 04:41:58;;;;;;;5.70;3.20;;;;;;;20.83;67.40;96538.25;4936503;28;20680;-81
2022/06/24 04:44:24;;;;;;;4.80;3.10;;;;;;;20.83;67.28;96538.25;4933930;28;20266;-82
2022/06/24 04:46:50;;;;;;;5.43;2.92;;;;;;;20.97;66.84;96548.53;4947922;28;20164;-81
2022/06/24 04:49:15;;;;;;;6.35;3.35;;;;;;;20.75;67.21;96547.81;4953076;28;20192;-81
2022/06/24 04:51:41;;;;;;;6.75;2.88;;;;;;;20.91;66.83;96553.28;4960645;28;20355;-82
2022/06/24 04:54:06;;;;;;;4.03;2.88;;;;;;;20.89;67.37;96561.53;4967555;28;20187;-81
2022/06/24 04:56:31;;;;;;;5.38;3.67;;;;;;;21.00;66.71;96555.84;4952926;28;20176;-81
2022/06/24 04:58:57;;;;;;;5.72;2.85;;;;;;;21.07;66.87;96553.41;4960032;28;20207;-81
2022/06/24 05:01:22;;;;;;;4.32;2.80;;;;;;;20.96;67.22;96553.06;4949121;28;20082;-80
2022/06/24 05:03:48;;;;;;;5.03;3.10;;;;;;;21.02;66.73;96554.41;4933417;28;20664;-80
2022/06/24 05:06:13;;;;;;;7.10;3.25;;;;;;;21.09;66.75;96554.63;4931273;28;20176;-81
2022/06/24 05:08:38;;;;;;;3.88;2.85;;;;;;;20.98;67.13;96558.81;4932697;28;20282;-80
2022/06/24 05:11:05;;;;;;;5.18;3.35;;;;;;;21.13;66.78;96557.41;4953726;28;20171;-80
2022/06/24 05:13:30;;;;;;;4.07;3.40;;;;;;;21.31;66.51;96560.63;4965619;28;20182;-81
2022/06/24 05:15:58;;;;;;;3.85;3.00;;;;;;;21.38;67.38;96565.38;4965798;28;20203;-81
2022/06/24 05:18:23;;;;;;;4.13;3.00;;;;;;;21.42;66.75;96559.09;4971275;28;20722;-80
2022/06/24 05:20:48;;;;;;;6.63;3.60;;;;;;;21.34;66.88;96565.28;4965286;28;20243;-81
2022/06/24 05:23:14;;;;;;;3.70;2.75;;;;;;;21.49;66.48;96564.66;4968180;28;20655;-81
2022/06/24 05:25:39;;;;;;;4.28;2.65;;;;;;;21.26;66.49;96558.19;4947893;28;20164;-81
2022/06/24 05:28:05;;;;;;;5.03;2.97;;;;;;;21.17;66.58;96557.53;4964450;28;20263;-80
2022/06/24 05:30:30;;;;;;;3.13;2.33;;;;;;;21.26;66.55;96564.25;4966404;28;20183;-81
2022/06/24 05:32:55;;;;;;;3.70;2.58;;;;;;;21.33;65.98;96564.50;4965157;28;20251;-81
2022/06/24 05:35:21;;;;;;;5.15;2.75;;;;;;;21.28;66.45;96569.22;4965420;28;20183;-81
2022/06/24 05:37:46;;;;;;;4.28;3.20;;;;;;;21.19;66.42;96568.56;4965428;28;20258;-81
2022/06/24 05:40:12;;;;;;;4.57;2.80;;;;;;;21.22;66.53;96573.97;4963946;28;20557;-81
2022/06/24 05:42:37;;;;;;;6.05;2.67;;;;;;;21.16;66.74;96569.22;4946946;28;20262;-82
2022/06/24 05:45:03;;;;;;;3.95;2.67;;;;;;;21.27;66.17;96576.41;4946065;28;20666;-80
2022/06/24 05:47:28;;;;;;;4.18;2.92;;;;;;;21.22;66.30;96576.63;4931724;28;20235;-80
2022/06/24 05:49:53;;;;;;;5.50;3.42;;;;;;;21.27;66.45;96570.34;4949027;28;20163;-81
2022/06/24 05:55:02;;;;;;;5.25;2.78;;;;;;;21.28;67.04;96572.66;4965271;28;20298;-81
2022/06/24 05:55:05;;;;;;;6.05;3.60;;;;;;;21.28;67.16;96558.63;4967652;28;20246;-80
2022/06/24 05:57:30;;;;;;;9.65;3.50;;;;;;;21.34;66.86;96565.28;4948630;28;20269;-81
2022/06/24 05:59:55;;;;;;;3.75;3.35;;;;;;;21.42;66.82;96558.31;4951503;28;20365;-81
2022/06/24 06:02:22;;;;;;;7.63;3.25;;;;;;;21.41;66.62;96557.56;4934397;28;20206;-81
2022/06/24 06:04:48;;;;;;;6.63;3.10;;;;;;;21.45;66.80;96563.72;4963285;28;20272;-81
2022/06/24 06:07:14;;;;;;;4.28;3.10;;;;;;;21.48;66.58;96557.81;4951023;28;20156;-81
2022/06/24 06:09:39;;;;;;;4.35;2.42;;;;;;;21.55;66.01;96551.19;4949099;28;20286;-81
2022/06/24 06:12:05;;;;;;;4.78;2.22;;;;;;;21.61;66.29;96549.84;4948915;28;20288;-80
2022/06/24 06:14:30;;;;;;;4.25;3.00;;;;;;;21.61;65.84;96555.16;4939992;28;20171;-79
2022/06/24 06:16:56;;;;;;;4.00;2.38;;;;;;;21.63;65.43;96560.91;4945820;28;20629;-81
2022/06/24 06:19:21;;;;;;;3.47;2.55;;;;;;;21.60;65.06;96556.28;4947765;28;20170;-81
2022/06/24 06:21:46;;;;;;;4.32;2.85;;;;;;;21.64;66.30;96565.88;4963153;28;20646;-80
2022/06/24 06:24:12;;;;;;;3.28;2.50;;;;;;;21.69;66.56;96565.66;4948277;28;20289;-80
2022/06/24 06:26:37;;;;;;;4.30;2.83;;;;;;;21.80;66.17;96565.22;4948172;28;20203;-80
2022/06/24 06:29:02;;;;;;;4.03;2.42;;;;;;;21.82;65.83;96569.06;4948967;28;20287;-80
2022/06/24 06:31:28;;;;;;;3.63;2.80;;;;;;;21.81;65.36;96559.56;4964306;28;20084;-80
2022/06/24 06:33:53;;;;;;;7.75;3.63;;;;;;;21.84;65.94;96566.84;4948535;28;20183;-81
2022/06/24 06:36:19;;;;;;;4.47;2.92;;;;;;;21.78;65.36;96562.09;4971688;28;20207;-80
2022/06/24 06:38:44;;;;;;;4.68;2.78;;;;;;;21.79;65.50;96563.66;4948023;28;20638;-81
2022/06/24 06:41:10;;;;;;;5.25;3.88;;;;;;;21.81;66.24;96564.88;4964502;28;20229;-80
2022/06/24 06:43:37;;;;;;;4.60;2.75;;;;;;;21.88;64.80;96562.47;4964500;28;20286;-80
2022/06/24 06:46:02;;;;;;;4.65;2.85;;;;;;;22.01;66.18;96570.38;4965039;28;20660;-81
2022/06/24 06:48:27;;;;;;;4.65;2.60;;;;;;;22.11;65.19;96569.94;4964002;28;20307;-80
2022/06/24 06:50:55;;;;;;;5.10;3.00;;;;;;;22.11;65.18;96563.88;4964302;28;20268;-80
2022/06/24 06:53:20;;;;;;;3.47;2.42;;;;;;;22.22;65.43;96564.94;4932824;28;20191;-81
2022/06/24 06:55:46;;;;;;;5.20;3.10;;;;;;;22.25;65.46;96566.91;4932180;28;20198;-80
2022/06/24 06:58:11;;;;;;;6.00;2.85;;;;;;;22.23;65.51;96569.91;4970585;28;20194;-80
2022/06/24 07:00:37;;;;;;;3.83;3.10;;;;;;;22.30;64.96;96576.56;4948090;28;20211;-80
2022/06/24 07:03:02;;;;;;;5.35;2.92;;;;;;;22.16;65.38;96567.06;4950044;28;20289;-80
2022/06/24 07:05:27;;;;;;;4.82;3.05;;;;;;;22.22;64.78;96575.53;4968877;28;20487;-80
2022/06/24 07:07:53;;;;;;;3.95;2.80;;;;;;;22.20;64.44;96567.91;4965302;28;20202;-80
2022/06/24 07:10:18;;;;;;;4.75;2.60;;;;;;;22.24;64.67;96571.47;4961150;28;20228;-80
2022/06/24 07:12:44;;;;;;;3.42;2.75;;;;;;;22.19;64.76;96570.91;4936812;28;20336;-80
2022/06/24 07:15:14;;;;;;;3.47;3.17;;;;;;;22.21;65.23;96568.72;4972269;28;20209;-80
2022/06/24 07:17:40;;;;;;;4.07;3.25;;;;;;;22.20;65.30;96564.50;4969314;28;20707;-81
2022/06/24 07:20:06;;;;;;;4.10;3.30;;;;;;;22.22;64.48;96562.28;4970729;28;20637;-81
2022/06/24 07:22:31;;;;;;;3.65;2.88;;;;;;;22.22;64.59;96563.03;4963787;28;20203;-81
2022/06/24 07:24:56;;;;;;;3.78;2.53;;;;;;;22.24;64.86;96563.50;4970904;28;20201;-80
2022/06/24 07:27:22;;;;;;;4.32;2.92;;;;;;;22.26;64.17;96566.59;4947748;28;20176;-80
2022/06/24 07:29:47;;;;;;;5.50;2.58;;;;;;;22.29;64.64;96564.41;4977221;28;20251;-80
2022/06/24 07:32:15;;;;;;;4.47;2.88;;;;;;;22.33;64.69;96581.97;4954397;28;20384;-81
2022/06/24 07:34:41;;;;;;;3.38;2.95;;;;;;;22.36;64.68;96575.19;4965737;28;20164;-80
2022/06/24 07:37:06;;;;;;;2.97;2.60;;;;;;;22.36;64.89;96576.00;4951244;28;20179;-80
2022/06/24 07:39:32;;;;;;;3.75;2.95;;;;;;;22.36;65.32;96575.19;4951410;28;20347;-80
2022/06/24 07:41:57;;;;;;;3.65;2.67;;;;;;;22.37;64.80;96582.06;4967701;28;20703;-80
2022/06/24 07:44:23;;;;;;;5.43;3.00;;;;;;;22.35;64.68;96581.63;4935311;28;20188;-80
2022/06/24 07:46:49;;;;;;;4.72;3.20;;;;;;;22.30;65.77;96577.31;4951173;28;20218;-80
2022/06/24 07:49:15;;;;;;;4.70;3.20;;;;;;;22.41;65.06;96565.16;4950394;28;20353;-81
2022/06/24 07:51:40;;;;;;;3.70;3.40;;;;;;;22.50;65.21;96567.66;4951282;28;20728;-81
2022/06/24 07:54:07;;;;;;;6.30;3.35;;;;;;;22.74;64.91;96573.97;4974403;28;20179;-80
2022/06/24 07:59:18;;;;;;;3.08;2.78;;;;;;;23.44;63.60;96578.06;4973371;28;20695;-82
2022/06/24 08:01:43;;;;;;;7.78;4.15;;;;;;;23.65;62.69;96575.16;4952843;28;20219;-80
2022/06/24 08:04:09;;;;;;;4.40;3.40;;;;;;;24.00;61.63;96567.22;4940136;28;20206;-80
2022/06/24 08:06:36;;;;;;;3.08;2.78;;;;;;;24.35;59.29;96558.47;4975354;28;20174;-79
2022/06/24 08:09:02;;;;;;;4.88;3.08;;;;;;;24.70;58.21;96567.53;4958693;28;20200;-80
2022/06/24 08:11:28;;;;;;;4.72;3.08;;;;;;;24.97;56.59;96557.75;4970026;28;20399;-79
2022/06/24 08:13:54;;;;;;;3.28;2.97;;;;;;;25.23;56.81;96557.06;4934482;28;20807;-79
2022/06/24 08:16:19;;;;;;;3.47;2.85;;;;;;;25.22;55.48;96566.94;4967231;28;20307;-79
2022/06/24 08:18:45;;;;;;;5.18;3.45;;;;;;;25.24;57.48;96572.69;4952066;28;20367;-79
2022/06/24 08:21:10;;;;;;;2.83;2.55;;;;;;;25.14;57.18;96562.63;4961457;28;20218;-79
2022/06/24 08:23:35;;;;;;;3.08;2.47;;;;;;;25.29;57.31;96560.97;4973257;28;20629;-79
2022/06/24 08:26:01;;;;;;;2.95;2.33;;;;;;;25.41;56.50;96558.16;4930789;28;20227;-79
2022/06/24 08:28:26;;;;;;;4.00;2.60;;;;;;;25.80;56.62;96560.63;4966495;28;20213;-79
2022/06/24 08:30:52;;;;;;;2.92;2.45;;;;;;;25.66;54.54;96554.31;4956735;28;20612;-78
2022/06/24 08:33:17;;;;;;;2.75;2.47;;;;;;;25.88;55.09;96556.19;4966971;28;20214;-78
2022/06/24 08:35:42;;;;;;;2.95;2.65;;;;;;;25.66;55.07;96552.44;4950640;28;20341;-78
2022/06/24 08:38:08;;;;;;;2.97;2.75;;;;;;;25.61;53.68;96552.72;4934419;28;20273;-78
2022/06/24 08:40:33;;;;;;;3.60;2.92;;;;;;;25.48;55.45;96554.03;4965159;28;20199;-78
2022/06/24 08:43:00;;;;;;;2.60;2.40;;;;;;;25.56;55.15;96556.47;4966769;28;20195;-79
2022/06/24 08:45:26;;;;;;;2.58;2.38;;;;;;;25.46;54.62;96554.41;4965522;28;20298;-77
2022/06/24 08:47:51;;;;;;;3.17;2.85;;;;;;;25.14;55.53;96553.84;4949138;28;20314;-78
2022/06/24 08:50:18;;;;;;;2.90;2.70;;;;;;;24.86;56.88;96558.34;4949428;28;20389;-78
2022/06/24 08:52:48;;;;;;;2.63;2.42;;;;;;;24.78;57.60;96566.50;4933645;28;20269;-78
2022/06/24 08:55:18;;;;;;;2.60;2.40;;;;;;;24.73;58.55;96564.94;4947862;28;20196;-78
2022/06/24 08:57:45;;;;;;;2.78;2.30;;;;;;;24.98;56.48;96557.38;4963426;28;20214;-78
2022/06/24 09:00:11;;;;;;;3.92;2.60;;;;;;;25.01;55.71;96554.00;4945023;28;20198;-78
2022/06/24 09:02:36;;;;;;;2.88;2.58;;;;;;;25.00;55.26;96557.03;4949138;28;20152;-79
2022/06/24 09:05:09;;;;;;;2.80;2.50;;;;;;;24.99;54.11;96560.81;4967565;28;20555;-78
2022/06/24 09:07:34;;;;;;;3.00;2.80;;;;;;;25.26;54.50;96560.91;4964712;28;20540;-78
2022/06/24 09:10:04;;;;;;;3.55;2.60;;;;;;;25.59;53.54;96560.31;4964974;28;20198;-78
2022/06/24 09:12:40;;;;;;;3.22;2.92;;;;;;;25.28;51.87;96550.69;4971334;28;20175;-77
2022/06/24 09:15:08;;;;;;;3.83;2.72;;;;;;;25.35;51.58;96551.56;4933639;28;20105;-78
2022/06/24 09:17:35;;;;;;;2.47;2.28;;;;;;;25.40;51.62;96563.84;4965991;28;20781;-78
2022/06/24 09:20:03;;;;;;;2.78;2.58;;;;;;;25.53;52.48;96559.84;4948118;28;20302;-78
2022/06/24 09:22:29;;;;;;;3.15;2.60;;;;;;;25.74;51.50;96562.06;4967284;28;20206;-78
2022/06/24 09:24:54;;;;;;;2.30;2.20;;;;;;;25.86;51.06;96558.44;4945313;28;20675;-78
2022/06/24 09:27:20;;;;;;;3.17;2.63;;;;;;;26.09;50.32;96545.03;4958064;28;20224;-77
2022/06/24 09:29:48;;;;;;;2.78;2.47;;;;;;;25.97;50.67;96547.94;4964467;28;20685;-78
2022/06/24 09:32:14;;;;;;;3.75;2.53;;;;;;;25.83;52.90;96543.16;4965577;28;20119;-77
2022/06/24 09:34:57;;;;;;;3.90;2.80;;;;;;;25.77;52.83;96536.56;4964709;28;20737;-78
2022/06/24 09:37:48;;;;;;;3.13;2.30;;;;;;;25.84;51.04;96543.91;4964250;28;20365;-78
2022/06/24 09:40:23;;;;;;;2.45;2.25;;;;;;;25.91;51.83;96539.47;4965202;28;20345;-77
2022/06/24 09:42:52;;;;;;;2.60;2.28;;;;;;;26.32;51.72;96544.19;4967534;28;20392;-78
2022/06/24 09:45:18;;;;;;;8.30;2.72;;;;;;;26.54;47.13;96543.31;4966483;28;20201;-77
2022/06/24 09:47:50;;;;;;;3.38;2.63;;;;;;;26.38;49.20;96531.31;4948403;28;20195;-78
2022/06/24 09:50:20;;;;;;;2.58;2.10;;;;;;;26.42;49.42;96545.44;4938083;28;20171;-78
2022/06/24 09:52:45;;;;;;;2.78;2.35;;;;;;;26.80;49.94;96532.91;4932063;28;20159;-77
2022/06/24 09:55:11;;;;;;;2.90;2.10;;;;;;;27.14;49.19;96530.19;4948471;28;20245;-80
2022/06/24 09:57:39;;;;;;;3.67;2.45;;;;;;;27.44;45.83;96548.78;4931259;28;20247;-77
2022/06/24 10:02:52;;;;;;;3.75;2.00;;;;;;;27.99;46.66;96540.78;4965004;28;20297;-77
2022/06/24 10:05:19;;;;;;;2.13;2.03;;;;;;;27.66;45.16;96536.34;4966174;28;20187;-76
2022/06/24 10:07:46;;;;;;;2.47;1.90;;;;;;;27.82;44.94;96547.53;4969415;28;20182;-77
2022/06/24 10:10:14;;;;;;;2.10;2.00;;;;;;;28.28;45.23;96545.50;4947597;28;20278;-76
2022/06/24 10:12:41;;;;;;;3.05;1.60;;;;;;;28.16;45.72;96552.72;4931457;28;20559;-77
2022/06/24 10:15:08;;;;;;;2.25;1.85;;;;;;;28.13;44.71;96537.41;4954004;28;20259;-77
2022/06/24 10:17:34;;;;;;;3.05;1.83;;;;;;;28.14;44.61;96538.94;4963895;28;20195;-77
2022/06/24 10:20:01;;;;;;;2.95;1.88;;;;;;;27.92;46.12;96529.28;4931948;28;20230;-77
2022/06/24 10:22:49;;;;;;;2.00;1.83;;;;;;;28.08;44.06;96537.00;4964678;28;20183;-77
2022/06/24 10:25:23;;;;;;;2.45;2.00;;;;;;;28.14;42.84;96530.16;4964746;28;20297;-76
2022/06/24 10:27:57;;;;;;;3.88;2.10;;;;;;;28.25;43.67;96530.19;4948162;28;20218;-77
2022/06/24 10:30:35;;;;;;;;;;;;;;;28.49;43.20;96528.75;4949505;28;20285;-77
2022/06/24 10:33:20;;;;;;;2.22;2.03;;;;;;;28.89;43.29;96529.63;4965075;28;20602;-77
2022/06/24 10:36:05;;;;;;;3.97;1.88;;;;;;;28.93;42.83;96531.19;4964875;28;20312;-77
2022/06/24 10:38:41;;;;;;;2.00;1.80;;;;;;;29.31;42.72;96528.91;4947900;28;20187;-77
2022/06/24 10:41:10;;;;;;;2.08;1.90;;;;;;;29.75;40.67;96518.13;4964788;28;20198;-77
2022/06/24 10:43:43;;;;;;;2.55;2.35;;;;;;;30.01;39.97;96530.41;4960760;28;20591;-77
2022/06/24 10:46:12;;;;;;;2.70;2.45;;;;;;;30.07;39.63;96528.81;4947630;28;20673;-76
2022/06/24 10:48:43;;;;;;;2.10;1.98;;;;;;;29.70;38.64;96522.75;4965617;28;20164;-77
2022/06/24 10:51:23;;;;;;;2.03;1.83;;;;;;;29.38;39.95;96517.44;4963710;28;20280;-77
2022/06/24 10:54:01;;;;;;;2.05;1.65;;;;;;;29.54;40.79;96521.63;4963798;28;20109;-76
2022/06/24 10:56:45;;;;;;;1.77;1.60;;;;;;;29.72;41.20;96525.06;4963677;28;20210;-76
2022/06/24 10:59:14;;;;;;;1.55;1.42;;;;;;;29.54;38.91;96517.03;4963413;28;20293;-76
2022/06/24 11:01:42;;;;;;;1.63;1.52;;;;;;;29.18;40.99;96522.41;4947251;28;20198;-77
2022/06/24 11:04:09;;;;;;;2.42;1.70;;;;;;;28.88;41.51;96528.13;4969934;28;20373;-76
2022/06/24 11:06:34;;;;;;;2.97;1.65;;;;;;;28.71;43.15;96529.59;4951483;28;20240;-76
2022/06/24 11:09:07;;;;;;;2.05;1.80;;;;;;;28.43;43.85;96519.53;4966261;28;20241;-76
2022/06/24 11:11:33;;;;;;;2.10;1.95;;;;;;;28.32;44.68;96508.78;4956171;28;20386;-76
2022/06/24 11:13:59;;;;;;;1.92;1.77;;;;;;;28.43;44.37;96509.59;4968782;28;20164;-76
2022/06/24 11:16:28;;;;;;;1.80;1.70;;;;;;;28.68;43.00;96515.03;4950766;28;20207;-76
2022/06/24 11:18:54;;;;;;;2.20;1.98;;;;;;;28.95;42.61;96512.03;4950584;28;20194;-76
2022/06/24 11:21:20;;;;;;;1.92;1.77;;;;;;;28.75;43.55;96508.94;4934934;28;20736;-76
2022/06/24 11:23:46;;;;;;;1.98;1.85;;;;;;;28.72;40.73;96507.00;4934180;28;20367;-76
2022/06/24 11:26:17;;;;;;;2.40;2.20;;;;;;;28.48;40.81;96506.56;4950766;28;20206;-76
2022/06/24 11:28:46;;;;;;;1.67;1.58;;;;;;;28.47;40.78;96513.06;4966889;28;20164;-76
2022/06/24 11:31:15;;;;;;;2.00;1.90;;;;;;;28.19;43.67;96506.47;4950210;28;20180;-77
2022/06/24 11:33:40;;;;;;;2.10;2.00;;;;;;;28.30;43.68;96495.03;4973322;28;20247;-76
2022/06/24 11:36:07;;;;;;;1.85;1.67;;;;;;;28.30;42.71;96497.69;4952271;28;20143;-76
2022/06/24 11:38:36;;;;;;;1.98;1.88;;;;;;;28.37;41.00;96497.72;4956942;28;20412;-76
2022/06/24 11:41:02;;;;;;;1.85;1.67;;;;;;;28.24;42.36;96493.84;4933424;28;20194;-76
2022/06/24 11:43:28;;;;;;;2.67;1.92;;;;;;;28.30;42.16;96485.06;4963676;28;20806;-76